Terminal Aerodrome Forecast
Issued by NWS Grand Forks, ND

Home | Current Version | Previous Version | Graphics & Text | Print | Product List | Glossary On
Versions: 1 2 3 4 5 6 7 8 9 10 11 12 13 14 15 16 17
000
FTUS43 KFGF 220945 AAA
TAFGFK
TAF AMD
KGFK 220945Z 2210/2306 00000KT 2SM BR OVC009
     FM221500 28004KT 3SM BR OVC010
     FM221900 28005KT P6SM OVC012
     FM230200 27007KT 6SM BR OVC010=

USA.gov is the U.S. government's official web portal to all federal, state and local government web resources and services.